sensor_id;sensor_type;location;lat;lon;timestamp;P1;durP1;ratioP1;P2;durP2;ratioP2
59734;SDS011;64362;45.620;4.920;2023-05-17T00:02:01;4.93;;;2.55;;
59734;SDS011;64362;45.620;4.920;2023-05-17T00:04:26;6.15;;;2.50;;
59734;SDS011;64362;45.620;4.920;2023-05-17T00:06:59;3.75;;;2.20;;
59734;SDS011;64362;45.620;4.920;2023-05-17T00:09:24;3.63;;;2.30;;
59734;SDS011;64362;45.620;4.920;2023-05-17T00:11:56;4.22;;;2.38;;
59734;SDS011;64362;45.620;4.920;2023-05-17T00:14:28;4.28;;;2.60;;
59734;SDS011;64362;45.620;4.920;2023-05-17T00:17:00;4.00;;;2.33;;
59734;SDS011;64362;45.620;4.920;2023-05-17T00:19:25;4.38;;;2.30;;
59734;SDS011;64362;45.620;4.920;2023-05-17T00:21:57;3.85;;;2.60;;
59734;SDS011;64362;45.620;4.920;2023-05-17T00:24:22;4.15;;;2.33;;
59734;SDS011;64362;45.620;4.920;2023-05-17T00:26:54;4.13;;;2.20;;
59734;SDS011;64362;45.620;4.920;2023-05-17T00:29:26;4.63;;;2.20;;
59734;SDS011;64362;45.620;4.920;2023-05-17T00:31:51;3.65;;;2.10;;
59734;SDS011;64362;45.620;4.920;2023-05-17T00:34:23;3.42;;;2.20;;
59734;SDS011;64362;45.620;4.920;2023-05-17T00:36:48;2.67;;;1.92;;
59734;SDS011;64362;45.620;4.920;2023-05-17T00:39:20;3.58;;;2.70;;
59734;SDS011;64362;45.620;4.920;2023-05-17T00:41:52;3.33;;;2.20;;
59734;SDS011;64362;45.620;4.920;2023-05-17T00:44:17;3.78;;;2.17;;
59734;SDS011;64362;45.620;4.920;2023-05-17T00:46:49;6.60;;;2.70;;
59734;SDS011;64362;45.620;4.920;2023-05-17T00:49:21;4.85;;;2.17;;
59734;SDS011;64362;45.620;4.920;2023-05-17T00:51:53;4.13;;;2.20;;
59734;SDS011;64362;45.620;4.920;2023-05-17T00:54:19;3.63;;;2.10;;
59734;SDS011;64362;45.620;4.920;2023-05-17T00:56:51;3.90;;;2.22;;
59734;SDS011;64362;45.620;4.920;2023-05-17T00:59:17;2.90;;;1.92;;
59734;SDS011;64362;45.620;4.920;2023-05-17T01:01:49;4.43;;;2.05;;
59734;SDS011;64362;45.620;4.920;2023-05-17T01:04:15;4.35;;;2.00;;
59734;SDS011;64362;45.620;4.920;2023-05-17T01:06:47;3.50;;;2.17;;
59734;SDS011;64362;45.620;4.920;2023-05-17T01:09:19;4.55;;;2.20;;
59734;SDS011;64362;45.620;4.920;2023-05-17T01:11:52;3.67;;;1.80;;
59734;SDS011;64362;45.620;4.920;2023-05-17T01:14:33;5.25;;;2.20;;
59734;SDS011;64362;45.620;4.920;2023-05-17T01:20:45;3.45;;;2.30;;
59734;SDS011;64362;45.620;4.920;2023-05-17T01:29:23;2.72;;;2.00;;
59734;SDS011;64362;45.620;4.920;2023-05-17T01:31:56;3.85;;;2.05;;
59734;SDS011;64362;45.620;4.920;2023-05-17T01:34:23;2.60;;;1.80;;
59734;SDS011;64362;45.620;4.920;2023-05-17T01:37:03;3.22;;;2.00;;
59734;SDS011;64362;45.620;4.920;2023-05-17T01:39:35;3.55;;;2.30;;
59734;SDS011;64362;45.620;4.920;2023-05-17T01:45:02;2.65;;;2.20;;
59734;SDS011;64362;45.620;4.920;2023-05-17T01:47:49;3.97;;;2.00;;
59734;SDS011;64362;45.620;4.920;2023-05-17T01:50:23;2.90;;;1.63;;
59734;SDS011;64362;45.620;4.920;2023-05-17T01:52:59;2.95;;;1.88;;
59734;SDS011;64362;45.620;4.920;2023-05-17T01:55:45;3.55;;;1.90;;
59734;SDS011;64362;45.620;4.920;2023-05-17T01:58:24;2.92;;;2.42;;
59734;SDS011;64362;45.620;4.920;2023-05-17T02:00:57;2.70;;;1.70;;
59734;SDS011;64362;45.620;4.920;2023-05-17T02:03:26;3.42;;;1.75;;
59734;SDS011;64362;45.620;4.920;2023-05-17T02:05:58;2.60;;;1.80;;
59734;SDS011;64362;45.620;4.920;2023-05-17T02:08:30;2.92;;;1.88;;
59734;SDS011;64362;45.620;4.920;2023-05-17T02:10:56;4.03;;;1.88;;
59734;SDS011;64362;45.620;4.920;2023-05-17T02:13:29;2.65;;;1.75;;
59734;SDS011;64362;45.620;4.920;2023-05-17T02:15:58;2.92;;;2.10;;
59734;SDS011;64362;45.620;4.920;2023-05-17T02:18:31;3.47;;;2.00;;
59734;SDS011;64362;45.620;4.920;2023-05-17T02:20:59;4.57;;;2.00;;
59734;SDS011;64362;45.620;4.920;2023-05-17T02:23:31;4.00;;;1.90;;
59734;SDS011;64362;45.620;4.920;2023-05-17T02:25:56;4.03;;;1.70;;
59734;SDS011;64362;45.620;4.920;2023-05-17T02:28:28;3.90;;;2.00;;
59734;SDS011;64362;45.620;4.920;2023-05-17T02:31:01;3.03;;;1.73;;
59734;SDS011;64362;45.620;4.920;2023-05-17T02:33:27;3.40;;;1.80;;
59734;SDS011;64362;45.620;4.920;2023-05-17T02:35:59;2.70;;;1.92;;
59734;SDS011;64362;45.620;4.920;2023-05-17T02:38:45;2.92;;;1.77;;
59734;SDS011;64362;45.620;4.920;2023-05-17T02:41:24;4.72;;;2.00;;
59734;SDS011;64362;45.620;4.920;2023-05-17T02:43:56;3.30;;;1.80;;
59734;SDS011;64362;45.620;4.920;2023-05-17T02:46:28;2.97;;;1.63;;
59734;SDS011;64362;45.620;4.920;2023-05-17T02:49:00;4.47;;;1.40;;
59734;SDS011;64362;45.620;4.920;2023-05-17T02:51:25;3.80;;;1.70;;
59734;SDS011;64362;45.620;4.920;2023-05-17T02:53:58;2.85;;;1.63;;
59734;SDS011;64362;45.620;4.920;2023-05-17T02:56:24;3.72;;;1.73;;
59734;SDS011;64362;45.620;4.920;2023-05-17T02:58:56;3.80;;;1.42;;
59734;SDS011;64362;45.620;4.920;2023-05-17T03:01:23;3.63;;;1.45;;
59734;SDS011;64362;45.620;4.920;2023-05-17T03:03:55;4.90;;;1.50;;
59734;SDS011;64362;45.620;4.920;2023-05-17T03:06:27;2.85;;;1.38;;
59734;SDS011;64362;45.620;4.920;2023-05-17T03:08:59;4.22;;;1.40;;
59734;SDS011;64362;45.620;4.920;2023-05-17T03:11:31;4.18;;;1.65;;
59734;SDS011;64362;45.620;4.920;2023-05-17T03:13:57;2.42;;;1.20;;
59734;SDS011;64362;45.620;4.920;2023-05-17T03:16:30;3.25;;;1.38;;
59734;SDS011;64362;45.620;4.920;2023-05-17T03:19:04;2.53;;;1.50;;
59734;SDS011;64362;45.620;4.920;2023-05-17T03:21:30;3.30;;;1.40;;
59734;SDS011;64362;45.620;4.920;2023-05-17T03:24:02;2.72;;;1.40;;
59734;SDS011;64362;45.620;4.920;2023-05-17T03:26:28;2.60;;;1.20;;
59734;SDS011;64362;45.620;4.920;2023-05-17T03:29:01;3.30;;;1.58;;
59734;SDS011;64362;45.620;4.920;2023-05-17T03:31:33;2.60;;;1.60;;
59734;SDS011;64362;45.620;4.920;2023-05-17T03:34:05;5.15;;;1.80;;
59734;SDS011;64362;45.620;4.920;2023-05-17T03:36:32;2.58;;;1.17;;
59734;SDS011;64362;45.620;4.920;2023-05-17T03:39:12;5.28;;;1.50;;
59734;SDS011;64362;45.620;4.920;2023-05-17T03:41:44;5.60;;;1.80;;
59734;SDS011;64362;45.620;4.920;2023-05-17T03:44:17;3.25;;;1.33;;
59734;SDS011;64362;45.620;4.920;2023-05-17T03:46:42;5.35;;;1.58;;
59734;SDS011;64362;45.620;4.920;2023-05-17T03:49:16;4.93;;;2.03;;
59734;SDS011;64362;45.620;4.920;2023-05-17T03:51:41;3.25;;;1.50;;
59734;SDS011;64362;45.620;4.920;2023-05-17T03:54:15;4.90;;;1.45;;
59734;SDS011;64362;45.620;4.920;2023-05-17T03:56:41;4.03;;;1.50;;
59734;SDS011;64362;45.620;4.920;2023-05-17T03:59:17;3.05;;;1.30;;
59734;SDS011;64362;45.620;4.920;2023-05-17T04:01:49;1.77;;;1.20;;
59734;SDS011;64362;45.620;4.920;2023-05-17T04:04:15;3.65;;;1.20;;
59734;SDS011;64362;45.620;4.920;2023-05-17T04:06:47;3.28;;;1.23;;
59734;SDS011;64362;45.620;4.920;2023-05-17T04:09:14;3.72;;;1.30;;
59734;SDS011;64362;45.620;4.920;2023-05-17T04:11:45;3.65;;;1.30;;
59734;SDS011;64362;45.620;4.920;2023-05-17T04:14:18;3.10;;;1.10;;
59734;SDS011;64362;45.620;4.920;2023-05-17T04:16:44;3.88;;;1.35;;
59734;SDS011;64362;45.620;4.920;2023-05-17T04:19:15;2.97;;;1.30;;
59734;SDS011;64362;45.620;4.920;2023-05-17T04:21:41;3.53;;;1.35;;
59734;SDS011;64362;45.620;4.920;2023-05-17T04:24:13;2.55;;;1.20;;
59734;SDS011;64362;45.620;4.920;2023-05-17T04:26:45;2.40;;;1.30;;
59734;SDS011;64362;45.620;4.920;2023-05-17T04:29:10;3.28;;;1.27;;
59734;SDS011;64362;45.620;4.920;2023-05-17T04:31:43;2.40;;;1.17;;
59734;SDS011;64362;45.620;4.920;2023-05-17T04:34:15;2.45;;;1.30;;
59734;SDS011;64362;45.620;4.920;2023-05-17T04:36:47;2.50;;;1.05;;
59734;SDS011;64362;45.620;4.920;2023-05-17T04:39:33;3.55;;;1.30;;
59734;SDS011;64362;45.620;4.920;2023-05-17T04:42:05;3.42;;;1.10;;
59734;SDS011;64362;45.620;4.920;2023-05-17T04:44:42;3.08;;;1.05;;
59734;SDS011;64362;45.620;4.920;2023-05-17T04:47:14;3.63;;;1.30;;
59734;SDS011;64362;45.620;4.920;2023-05-17T04:49:46;2.28;;;1.10;;
59734;SDS011;64362;45.620;4.920;2023-05-17T04:52:12;2.03;;;1.20;;
59734;SDS011;64362;45.620;4.920;2023-05-17T04:54:45;2.88;;;1.30;;
59734;SDS011;64362;45.620;4.920;2023-05-17T04:57:11;2.38;;;1.30;;
59734;SDS011;64362;45.620;4.920;2023-05-17T04:59:57;2.90;;;1.30;;
59734;SDS011;64362;45.620;4.920;2023-05-17T05:02:24;3.15;;;1.42;;
59734;SDS011;64362;45.620;4.920;2023-05-17T05:04:49;3.17;;;1.20;;
59734;SDS011;64362;45.620;4.920;2023-05-17T05:07:15;1.58;;;1.10;;
59734;SDS011;64362;45.620;4.920;2023-05-17T05:09:42;4.70;;;1.38;;
59734;SDS011;64362;45.620;4.920;2023-05-17T05:12:09;2.63;;;1.30;;
59734;SDS011;64362;45.620;4.920;2023-05-17T05:14:35;2.63;;;1.08;;
59734;SDS011;64362;45.620;4.920;2023-05-17T05:17:01;2.40;;;1.40;;
59734;SDS011;64362;45.620;4.920;2023-05-17T05:19:27;2.42;;;1.17;;
59734;SDS011;64362;45.620;4.920;2023-05-17T05:21:54;3.70;;;1.25;;
59734;SDS011;64362;45.620;4.920;2023-05-17T05:24:19;3.17;;;1.45;;
59734;SDS011;64362;45.620;4.920;2023-05-17T05:26:46;3.72;;;1.20;;
59734;SDS011;64362;45.620;4.920;2023-05-17T05:29:13;3.55;;;1.30;;
59734;SDS011;64362;45.620;4.920;2023-05-17T05:31:38;5.40;;;1.80;;
59734;SDS011;64362;45.620;4.920;2023-05-17T05:34:05;3.85;;;1.38;;
59734;SDS011;64362;45.620;4.920;2023-05-17T05:36:31;4.07;;;1.00;;
59734;SDS011;64362;45.620;4.920;2023-05-17T05:38:58;2.67;;;1.05;;
59734;SDS011;64362;45.620;4.920;2023-05-17T05:41:24;3.60;;;1.30;;
59734;SDS011;64362;45.620;4.920;2023-05-17T05:43:49;4.07;;;1.30;;
59734;SDS011;64362;45.620;4.920;2023-05-17T05:46:15;3.80;;;1.45;;
59734;SDS011;64362;45.620;4.920;2023-05-17T05:48:40;3.53;;;1.40;;
59734;SDS011;64362;45.620;4.920;2023-05-17T05:51:06;1.80;;;1.10;;
59734;SDS011;64362;45.620;4.920;2023-05-17T05:53:32;4.47;;;1.45;;
59734;SDS011;64362;45.620;4.920;2023-05-17T05:55:58;4.13;;;1.40;;
59734;SDS011;64362;45.620;4.920;2023-05-17T05:58:25;3.40;;;1.30;;
59734;SDS011;64362;45.620;4.920;2023-05-17T06:00:51;2.78;;;1.50;;
59734;SDS011;64362;45.620;4.920;2023-05-17T06:03:16;4.00;;;1.33;;
59734;SDS011;64362;45.620;4.920;2023-05-17T06:05:41;3.83;;;1.30;;
59734;SDS011;64362;45.620;4.920;2023-05-17T06:08:07;2.65;;;1.38;;
59734;SDS011;64362;45.620;4.920;2023-05-17T06:10:32;3.13;;;1.45;;
59734;SDS011;64362;45.620;4.920;2023-05-17T06:12:58;2.88;;;1.17;;
59734;SDS011;64362;45.620;4.920;2023-05-17T06:15:25;3.42;;;1.50;;
59734;SDS011;64362;45.620;4.920;2023-05-17T06:17:51;5.30;;;1.27;;
59734;SDS011;64362;45.620;4.920;2023-05-17T06:20:16;6.32;;;1.40;;
59734;SDS011;64362;45.620;4.920;2023-05-17T06:22:42;3.33;;;1.42;;
59734;SDS011;64362;45.620;4.920;2023-05-17T06:25:08;3.05;;;1.25;;
59734;SDS011;64362;45.620;4.920;2023-05-17T06:27:35;3.50;;;1.40;;
59734;SDS011;64362;45.620;4.920;2023-05-17T06:30:01;3.53;;;1.30;;
59734;SDS011;64362;45.620;4.920;2023-05-17T06:32:28;4.05;;;1.48;;
59734;SDS011;64362;45.620;4.920;2023-05-17T06:34:54;6.25;;;1.75;;
59734;SDS011;64362;45.620;4.920;2023-05-17T06:37:20;4.45;;;1.60;;
59734;SDS011;64362;45.620;4.920;2023-05-17T06:39:46;3.17;;;1.45;;
59734;SDS011;64362;45.620;4.920;2023-05-17T06:42:11;2.92;;;1.25;;
59734;SDS011;64362;45.620;4.920;2023-05-17T06:44:38;5.93;;;1.70;;
59734;SDS011;64362;45.620;4.920;2023-05-17T06:47:10;3.75;;;1.35;;
59734;SDS011;64362;45.620;4.920;2023-05-17T06:49:36;4.07;;;1.58;;
59734;SDS011;64362;45.620;4.920;2023-05-17T06:52:01;9.20;;;1.55;;
59734;SDS011;64362;45.620;4.920;2023-05-17T06:54:29;4.15;;;1.17;;
59734;SDS011;64362;45.620;4.920;2023-05-17T06:56:59;6.38;;;1.60;;
59734;SDS011;64362;45.620;4.920;2023-05-17T06:59:27;4.82;;;1.70;;
59734;SDS011;64362;45.620;4.920;2023-05-17T07:01:53;3.15;;;1.30;;
59734;SDS011;64362;45.620;4.920;2023-05-17T07:04:18;4.28;;;1.25;;
59734;SDS011;64362;45.620;4.920;2023-05-17T07:06:44;3.33;;;1.27;;
59734;SDS011;64362;45.620;4.920;2023-05-17T07:09:10;4.20;;;1.85;;
59734;SDS011;64362;45.620;4.920;2023-05-17T07:11:36;3.80;;;1.30;;
59734;SDS011;64362;45.620;4.920;2023-05-17T07:14:02;4.10;;;1.33;;
59734;SDS011;64362;45.620;4.920;2023-05-17T07:16:27;2.92;;;1.35;;
59734;SDS011;64362;45.620;4.920;2023-05-17T07:18:52;4.25;;;1.20;;
59734;SDS011;64362;45.620;4.920;2023-05-17T07:21:18;3.72;;;1.40;;
59734;SDS011;64362;45.620;4.920;2023-05-17T07:23:43;4.40;;;1.23;;
59734;SDS011;64362;45.620;4.920;2023-05-17T07:26:09;6.30;;;1.40;;
59734;SDS011;64362;45.620;4.920;2023-05-17T07:28:34;3.30;;;1.45;;
59734;SDS011;64362;45.620;4.920;2023-05-17T07:31:00;2.60;;;1.20;;
59734;SDS011;64362;45.620;4.920;2023-05-17T07:33:26;4.72;;;1.33;;
59734;SDS011;64362;45.620;4.920;2023-05-17T07:35:52;3.78;;;1.30;;
59734;SDS011;64362;45.620;4.920;2023-05-17T07:38:17;3.50;;;1.45;;
59734;SDS011;64362;45.620;4.920;2023-05-17T07:40:43;2.33;;;1.10;;
59734;SDS011;64362;45.620;4.920;2023-05-17T07:43:09;2.60;;;1.42;;
59734;SDS011;64362;45.620;4.920;2023-05-17T07:45:34;3.03;;;1.30;;
59734;SDS011;64362;45.620;4.920;2023-05-17T07:47:59;3.67;;;1.30;;
59734;SDS011;64362;45.620;4.920;2023-05-17T07:50:25;2.35;;;1.20;;
59734;SDS011;64362;45.620;4.920;2023-05-17T07:52:51;3.13;;;1.42;;
59734;SDS011;64362;45.620;4.920;2023-05-17T07:55:17;3.30;;;1.50;;
59734;SDS011;64362;45.620;4.920;2023-05-17T07:57:44;3.95;;;1.33;;
59734;SDS011;64362;45.620;4.920;2023-05-17T08:00:11;3.58;;;1.83;;
59734;SDS011;64362;45.620;4.920;2023-05-17T08:02:38;3.42;;;1.70;;
59734;SDS011;64362;45.620;4.920;2023-05-17T08:05:04;3.08;;;1.33;;
59734;SDS011;64362;45.620;4.920;2023-05-17T08:07:31;2.28;;;1.30;;
59734;SDS011;64362;45.620;4.920;2023-05-17T08:09:56;2.45;;;1.20;;
59734;SDS011;64362;45.620;4.920;2023-05-17T08:12:22;2.40;;;1.17;;
59734;SDS011;64362;45.620;4.920;2023-05-17T08:14:47;4.28;;;1.40;;
59734;SDS011;64362;45.620;4.920;2023-05-17T08:17:13;3.88;;;1.50;;
59734;SDS011;64362;45.620;4.920;2023-05-17T08:19:38;4.85;;;1.30;;
59734;SDS011;64362;45.620;4.920;2023-05-17T08:22:04;3.90;;;1.30;;
59734;SDS011;64362;45.620;4.920;2023-05-17T08:24:29;2.58;;;1.13;;
59734;SDS011;64362;45.620;4.920;2023-05-17T08:26:54;3.20;;;1.30;;
59734;SDS011;64362;45.620;4.920;2023-05-17T08:29:20;2.75;;;1.42;;
59734;SDS011;64362;45.620;4.920;2023-05-17T08:31:46;2.90;;;1.30;;
59734;SDS011;64362;45.620;4.920;2023-05-17T08:34:11;2.38;;;1.27;;
59734;SDS011;64362;45.620;4.920;2023-05-17T08:36:37;2.05;;;1.17;;
59734;SDS011;64362;45.620;4.920;2023-05-17T08:39:02;3.35;;;1.40;;
59734;SDS011;64362;45.620;4.920;2023-05-17T08:41:28;4.22;;;1.17;;
59734;SDS011;64362;45.620;4.920;2023-05-17T08:43:53;7.43;;;1.38;;
59734;SDS011;64362;45.620;4.920;2023-05-17T08:46:19;2.78;;;1.30;;
59734;SDS011;64362;45.620;4.920;2023-05-17T08:48:52;2.70;;;1.23;;
59734;SDS011;64362;45.620;4.920;2023-05-17T08:51:20;4.13;;;1.40;;
59734;SDS011;64362;45.620;4.920;2023-05-17T08:53:46;2.95;;;1.25;;
59734;SDS011;64362;45.620;4.920;2023-05-17T09:14:24;4.20;;;1.30;;
59734;SDS011;64362;45.620;4.920;2023-05-17T09:17:03;3.08;;;1.30;;
59734;SDS011;64362;45.620;4.920;2023-05-17T09:19:39;2.65;;;1.33;;
59734;SDS011;64362;45.620;4.920;2023-05-17T09:22:17;2.72;;;1.27;;
59734;SDS011;64362;45.620;4.920;2023-05-17T09:24:43;3.65;;;1.42;;
59734;SDS011;64362;45.620;4.920;2023-05-17T09:27:18;2.60;;;1.42;;
59734;SDS011;64362;45.620;4.920;2023-05-17T09:29:44;2.08;;;1.00;;
59734;SDS011;64362;45.620;4.920;2023-05-17T09:32:11;2.35;;;1.10;;
59734;SDS011;64362;45.620;4.920;2023-05-17T09:34:40;2.88;;;1.05;;
59734;SDS011;64362;45.620;4.920;2023-05-17T09:37:16;2.22;;;1.05;;
59734;SDS011;64362;45.620;4.920;2023-05-17T09:39:42;2.67;;;1.20;;
59734;SDS011;64362;45.620;4.920;2023-05-17T09:44:45;5.05;;;1.60;;
59734;SDS011;64362;45.620;4.920;2023-05-17T09:47:20;2.97;;;1.27;;
59734;SDS011;64362;45.620;4.920;2023-05-17T09:49:46;2.97;;;1.33;;
59734;SDS011;64362;45.620;4.920;2023-05-17T09:52:15;3.25;;;1.20;;
59734;SDS011;64362;45.620;4.920;2023-05-17T09:54:41;1.95;;;1.13;;
59734;SDS011;64362;45.620;4.920;2023-05-17T09:57:07;3.10;;;1.08;;
59734;SDS011;64362;45.620;4.920;2023-05-17T09:59:34;3.17;;;1.30;;
59734;SDS011;64362;45.620;4.920;2023-05-17T10:02:00;2.75;;;1.13;;
59734;SDS011;64362;45.620;4.920;2023-05-17T10:04:27;3.72;;;1.73;;
59734;SDS011;64362;45.620;4.920;2023-05-17T10:06:53;2.90;;;1.52;;
59734;SDS011;64362;45.620;4.920;2023-05-17T10:09:20;1.90;;;1.02;;
59734;SDS011;64362;45.620;4.920;2023-05-17T10:11:46;2.33;;;1.15;;
59734;SDS011;64362;45.620;4.920;2023-05-17T10:14:46;2.55;;;1.42;;
59734;SDS011;64362;45.620;4.920;2023-05-17T10:17:04;3.08;;;1.33;;
59734;SDS011;64362;45.620;4.920;2023-05-17T10:19:30;3.25;;;1.80;;
59734;SDS011;64362;45.620;4.920;2023-05-17T10:21:56;4.57;;;1.17;;
59734;SDS011;64362;45.620;4.920;2023-05-17T10:24:22;3.67;;;1.33;;
59734;SDS011;64362;45.620;4.920;2023-05-17T10:26:51;3.58;;;1.20;;
59734;SDS011;64362;45.620;4.920;2023-05-17T10:29:17;3.63;;;1.35;;
59734;SDS011;64362;45.620;4.920;2023-05-17T10:31:44;3.63;;;1.17;;
59734;SDS011;64362;45.620;4.920;2023-05-17T10:34:11;3.30;;;1.15;;
59734;SDS011;64362;45.620;4.920;2023-05-17T10:36:36;4.30;;;1.70;;
59734;SDS011;64362;45.620;4.920;2023-05-17T10:39:05;2.95;;;1.45;;
59734;SDS011;64362;45.620;4.920;2023-05-17T10:41:32;3.22;;;1.48;;
59734;SDS011;64362;45.620;4.920;2023-05-17T10:43:58;2.63;;;1.15;;
59734;SDS011;64362;45.620;4.920;2023-05-17T10:46:27;4.45;;;1.25;;
59734;SDS011;64362;45.620;4.920;2023-05-17T10:48:55;2.47;;;1.10;;
59734;SDS011;64362;45.620;4.920;2023-05-17T10:51:22;2.83;;;1.30;;
59734;SDS011;64362;45.620;4.920;2023-05-17T10:56:29;2.13;;;1.00;;
59734;SDS011;64362;45.620;4.920;2023-05-17T11:04:37;2.83;;;1.20;;
59734;SDS011;64362;45.620;4.920;2023-05-17T11:09:45;2.28;;;1.20;;
59734;SDS011;64362;45.620;4.920;2023-05-17T11:12:31;3.50;;;1.10;;
59734;SDS011;64362;45.620;4.920;2023-05-17T11:15:00;2.15;;;1.30;;
59734;SDS011;64362;45.620;4.920;2023-05-17T11:17:33;3.42;;;1.40;;
59734;SDS011;64362;45.620;4.920;2023-05-17T11:20:04;3.03;;;1.50;;
59734;SDS011;64362;45.620;4.920;2023-05-17T11:22:39;2.57;;;1.00;;
59734;SDS011;64362;45.620;4.920;2023-05-17T11:25:10;2.35;;;1.50;;
59734;SDS011;64362;45.620;4.920;2023-05-17T11:27:57;3.80;;;1.30;;
59734;SDS011;64362;45.620;4.920;2023-05-17T11:32:58;2.70;;;1.10;;
59734;SDS011;64362;45.620;4.920;2023-05-17T11:35:31;3.80;;;1.27;;
59734;SDS011;64362;45.620;4.920;2023-05-17T11:40:44;2.42;;;1.20;;
59734;SDS011;64362;45.620;4.920;2023-05-17T11:43:11;1.98;;;0.90;;
59734;SDS011;64362;45.620;4.920;2023-05-17T11:45:51;1.90;;;1.10;;
59734;SDS011;64362;45.620;4.920;2023-05-17T11:48:20;2.75;;;1.15;;
59734;SDS011;64362;45.620;4.920;2023-05-17T11:50:47;4.57;;;1.23;;
59734;SDS011;64362;45.620;4.920;2023-05-17T11:53:13;3.97;;;1.30;;
59734;SDS011;64362;45.620;4.920;2023-05-17T11:55:39;3.05;;;1.63;;
59734;SDS011;64362;45.620;4.920;2023-05-17T11:58:13;2.85;;;1.30;;
59734;SDS011;64362;45.620;4.920;2023-05-17T12:00:40;2.72;;;1.20;;
59734;SDS011;64362;45.620;4.920;2023-05-17T12:05:44;2.10;;;1.40;;
59734;SDS011;64362;45.620;4.920;2023-05-17T12:08:11;3.65;;;1.33;;
59734;SDS011;64362;45.620;4.920;2023-05-17T12:10:38;2.05;;;1.35;;
59734;SDS011;64362;45.620;4.920;2023-05-17T12:13:08;1.77;;;1.20;;
59734;SDS011;64362;45.620;4.920;2023-05-17T12:15:34;2.22;;;1.10;;
59734;SDS011;64362;45.620;4.920;2023-05-17T12:17:59;1.98;;;0.90;;
59734;SDS011;64362;45.620;4.920;2023-05-17T12:20:25;2.15;;;1.05;;
59734;SDS011;64362;45.620;4.920;2023-05-17T12:22:51;2.42;;;1.25;;
59734;SDS011;64362;45.620;4.920;2023-05-17T12:25:21;3.42;;;1.35;;
59734;SDS011;64362;45.620;4.920;2023-05-17T12:27:53;2.67;;;1.10;;
59734;SDS011;64362;45.620;4.920;2023-05-17T12:30:39;2.35;;;1.17;;
59734;SDS011;64362;45.620;4.920;2023-05-17T12:33:05;2.30;;;1.20;;
59734;SDS011;64362;45.620;4.920;2023-05-17T12:35:31;4.38;;;1.30;;
59734;SDS011;64362;45.620;4.920;2023-05-17T12:37:56;2.22;;;1.10;;
59734;SDS011;64362;45.620;4.920;2023-05-17T12:40:22;2.20;;;1.00;;
59734;SDS011;64362;45.620;4.920;2023-05-17T12:42:48;2.75;;;1.20;;
59734;SDS011;64362;45.620;4.920;2023-05-17T12:45:13;2.97;;;1.00;;
59734;SDS011;64362;45.620;4.920;2023-05-17T12:47:38;1.83;;;1.10;;
59734;SDS011;64362;45.620;4.920;2023-05-17T12:50:04;2.47;;;1.00;;
59734;SDS011;64362;45.620;4.920;2023-05-17T12:52:33;2.08;;;1.27;;
59734;SDS011;64362;45.620;4.920;2023-05-17T12:55:04;1.67;;;0.95;;
59734;SDS011;64362;45.620;4.920;2023-05-17T12:57:29;1.95;;;1.25;;
59734;SDS011;64362;45.620;4.920;2023-05-17T12:59:55;3.08;;;1.10;;
59734;SDS011;64362;45.620;4.920;2023-05-17T13:02:21;2.45;;;1.20;;
59734;SDS011;64362;45.620;4.920;2023-05-17T13:04:48;4.28;;;1.30;;
59734;SDS011;64362;45.620;4.920;2023-05-17T13:07:22;2.53;;;1.17;;
59734;SDS011;64362;45.620;4.920;2023-05-17T13:09:48;4.03;;;1.25;;
59734;SDS011;64362;45.620;4.920;2023-05-17T13:12:18;3.67;;;1.10;;
59734;SDS011;64362;45.620;4.920;2023-05-17T13:14:46;2.05;;;1.20;;
59734;SDS011;64362;45.620;4.920;2023-05-17T13:17:25;2.67;;;1.33;;
59734;SDS011;64362;45.620;4.920;2023-05-17T13:19:52;2.20;;;1.00;;
59734;SDS011;64362;45.620;4.920;2023-05-17T13:22:18;2.38;;;1.05;;
59734;SDS011;64362;45.620;4.920;2023-05-17T13:24:43;4.88;;;1.17;;
59734;SDS011;64362;45.620;4.920;2023-05-17T13:27:09;2.53;;;1.13;;
59734;SDS011;64362;45.620;4.920;2023-05-17T13:29:36;3.00;;;1.35;;
59734;SDS011;64362;45.620;4.920;2023-05-17T13:32:04;2.67;;;1.30;;
59734;SDS011;64362;45.620;4.920;2023-05-17T13:34:30;2.33;;;1.23;;
59734;SDS011;64362;45.620;4.920;2023-05-17T13:36:56;2.92;;;1.25;;
59734;SDS011;64362;45.620;4.920;2023-05-17T13:39:21;2.72;;;1.55;;
59734;SDS011;64362;45.620;4.920;2023-05-17T13:41:47;2.83;;;1.10;;
59734;SDS011;64362;45.620;4.920;2023-05-17T13:44:13;2.92;;;1.23;;
59734;SDS011;64362;45.620;4.920;2023-05-17T13:46:38;3.17;;;1.20;;
59734;SDS011;64362;45.620;4.920;2023-05-17T13:49:04;2.83;;;1.17;;
59734;SDS011;64362;45.620;4.920;2023-05-17T13:51:31;1.60;;;0.90;;
59734;SDS011;64362;45.620;4.920;2023-05-17T13:53:58;2.67;;;1.10;;
59734;SDS011;64362;45.620;4.920;2023-05-17T13:56:25;2.95;;;1.52;;
59734;SDS011;64362;45.620;4.920;2023-05-17T13:58:50;2.85;;;1.30;;
59734;SDS011;64362;45.620;4.920;2023-05-17T14:01:16;1.90;;;1.08;;
59734;SDS011;64362;45.620;4.920;2023-05-17T14:03:43;2.72;;;1.30;;
59734;SDS011;64362;45.620;4.920;2023-05-17T14:06:09;4.47;;;1.45;;
59734;SDS011;64362;45.620;4.920;2023-05-17T14:08:34;1.98;;;1.10;;
59734;SDS011;64362;45.620;4.920;2023-05-17T14:11:00;3.15;;;1.20;;
59734;SDS011;64362;45.620;4.920;2023-05-17T14:13:27;2.13;;;1.10;;
59734;SDS011;64362;45.620;4.920;2023-05-17T14:15:52;3.28;;;1.30;;
59734;SDS011;64362;45.620;4.920;2023-05-17T14:18:18;2.38;;;1.40;;
59734;SDS011;64362;45.620;4.920;2023-05-17T14:20:43;2.85;;;1.30;;
59734;SDS011;64362;45.620;4.920;2023-05-17T14:23:09;1.95;;;1.10;;
59734;SDS011;64362;45.620;4.920;2023-05-17T14:25:34;2.90;;;1.20;;
59734;SDS011;64362;45.620;4.920;2023-05-17T14:28:00;3.47;;;1.13;;
59734;SDS011;64362;45.620;4.920;2023-05-17T14:30:25;3.40;;;1.17;;
59734;SDS011;64362;45.620;4.920;2023-05-17T14:32:51;3.47;;;1.10;;
59734;SDS011;64362;45.620;4.920;2023-05-17T14:35:16;2.72;;;1.30;;
59734;SDS011;64362;45.620;4.920;2023-05-17T14:37:42;2.72;;;1.27;;
59734;SDS011;64362;45.620;4.920;2023-05-17T14:40:08;3.17;;;1.30;;
59734;SDS011;64362;45.620;4.920;2023-05-17T14:42:34;3.10;;;1.30;;
59734;SDS011;64362;45.620;4.920;2023-05-17T14:44:59;2.95;;;1.30;;
59734;SDS011;64362;45.620;4.920;2023-05-17T14:47:25;4.28;;;1.58;;
59734;SDS011;64362;45.620;4.920;2023-05-17T14:49:50;4.40;;;1.20;;
59734;SDS011;64362;45.620;4.920;2023-05-17T14:52:16;4.53;;;1.50;;
59734;SDS011;64362;45.620;4.920;2023-05-17T14:54:41;2.85;;;1.33;;
59734;SDS011;64362;45.620;4.920;2023-05-17T14:57:07;2.92;;;1.30;;
59734;SDS011;64362;45.620;4.920;2023-05-17T14:59:33;2.42;;;1.40;;
59734;SDS011;64362;45.620;4.920;2023-05-17T15:01:59;3.25;;;1.40;;
59734;SDS011;64362;45.620;4.920;2023-05-17T15:04:25;3.80;;;1.35;;
59734;SDS011;64362;45.620;4.920;2023-05-17T15:06:50;2.08;;;1.15;;
59734;SDS011;64362;45.620;4.920;2023-05-17T15:09:17;3.65;;;1.50;;
59734;SDS011;64362;45.620;4.920;2023-05-17T15:11:43;2.78;;;1.08;;
59734;SDS011;64362;45.620;4.920;2023-05-17T15:14:09;2.50;;;1.15;;
59734;SDS011;64362;45.620;4.920;2023-05-17T15:16:35;2.50;;;1.58;;
59734;SDS011;64362;45.620;4.920;2023-05-17T15:19:00;2.58;;;1.20;;
59734;SDS011;64362;45.620;4.920;2023-05-17T15:21:26;3.03;;;1.33;;
59734;SDS011;64362;45.620;4.920;2023-05-17T15:23:51;3.15;;;1.17;;
59734;SDS011;64362;45.620;4.920;2023-05-17T15:26:17;2.92;;;1.45;;
59734;SDS011;64362;45.620;4.920;2023-05-17T15:28:42;2.85;;;1.40;;
59734;SDS011;64362;45.620;4.920;2023-05-17T15:31:08;2.78;;;1.40;;
59734;SDS011;64362;45.620;4.920;2023-05-17T15:33:38;2.80;;;1.33;;
59734;SDS011;64362;45.620;4.920;2023-05-17T15:36:07;1.92;;;1.00;;
59734;SDS011;64362;45.620;4.920;2023-05-17T15:38:35;3.63;;;1.40;;
59734;SDS011;64362;45.620;4.920;2023-05-17T15:41:02;2.60;;;1.23;;
59734;SDS011;64362;45.620;4.920;2023-05-17T15:43:29;4.57;;;1.48;;
59734;SDS011;64362;45.620;4.920;2023-05-17T15:45:55;3.00;;;1.30;;
59734;SDS011;64362;45.620;4.920;2023-05-17T15:48:21;2.00;;;1.10;;